Time;durP1;ratioP1;P1;durP2;ratioP2;P2;SDS_P1;SDS_P2;PMS_P1;PMS_P2;Temp;Humidity;BMP_temperature;BMP_pressure;BME280_temperature;BME280_humidity;BME280_pressure;Samples;Min_cycle;Max_cycle;Signal;HPM_P1;HPM_P2
2022/10/07 00:01:45;;;;;;;12.53;4.63;;;13.20;23.70;;;;;;5020694;28;20174;-89
2022/10/07 00:04:10;;;;;;;11.23;4.50;;;13.10;21.50;;;;;;5018252;28;20172;-90
2022/10/07 00:06:36;;;;;;;17.10;5.73;;;13.20;17.80;;;;;;5018354;28;20180;-90
2022/10/07 00:09:02;;;;;;;15.50;5.00;;;13.40;15.30;;;;;;5017469;28;20186;-88
2022/10/07 00:11:28;;;;;;;12.23;4.77;;;13.30;15.30;;;;;;5017453;28;20264;-90
2022/10/07 00:13:58;;;;;;;12.13;5.57;;;13.10;18.40;;;;;;5023025;28;20171;-90
2022/10/07 00:16:31;;;;;;;13.83;4.97;;;12.90;22.90;;;;;;5023303;28;20754;-89
2022/10/07 00:18:59;;;;;;;16.03;5.70;;;12.90;25.90;;;;;;5020908;28;20203;-90
2022/10/07 00:21:28;;;;;;;12.23;4.80;;;13.00;24.80;;;;;;5018504;28;20211;-89
2022/10/07 00:23:57;;;;;;;13.53;4.70;;;12.90;25.50;;;;;;5015943;28;20180;-89
2022/10/07 00:26:25;;;;;;;14.07;4.97;;;12.80;25.70;;;;;;5015612;28;20180;-89
2022/10/07 00:28:51;;;;;;;12.93;5.20;;;12.70;30.00;;;;;;5016671;28;20170;-89
2022/10/07 00:31:21;;;;;;;14.13;5.53;;;12.70;33.60;;;;;;5016295;28;20273;-89
2022/10/07 00:33:47;;;;;;;11.77;4.60;;;12.70;38.40;;;;;;5018355;28;20206;-88
2022/10/07 00:36:22;;;;;;;15.00;5.17;;;12.50;39.50;;;;;;5005266;28;20185;-89
2022/10/07 00:39:07;;;;;;;18.93;5.57;;;12.60;40.40;;;;;;5003923;28;20198;-90
2022/10/07 00:41:40;;;;;;;15.43;5.60;;;12.60;39.40;;;;;;5006253;28;20176;-89
2022/10/07 00:44:27;;;;;;;14.50;5.20;;;12.50;39.00;;;;;;5007037;28;20181;-88
2022/10/07 00:46:54;;;;;;;13.93;5.03;;;12.50;42.20;;;;;;5007447;28;20202;-89
2022/10/07 00:49:20;;;;;;;11.67;5.17;;;12.60;39.40;;;;;;5006254;28;20179;-88
2022/10/07 00:51:49;;;;;;;13.07;5.03;;;12.70;32.50;;;;;;4985651;28;20191;-88
2022/10/07 00:54:18;;;;;;;8.80;4.77;;;12.90;28.20;;;;;;5005905;28;20176;-89
2022/10/07 00:56:46;;;;;;;15.17;5.03;;;13.00;23.90;;;;;;4989739;28;20245;-88
2022/10/07 00:59:14;;;;;;;12.60;4.97;;;13.00;23.20;;;;;;5006398;28;20191;-89
2022/10/07 01:01:40;;;;;;;11.97;5.27;;;12.90;22.20;;;;;;5007182;28;20181;-90
2022/10/07 01:04:08;;;;;;;15.13;5.47;;;12.70;26.30;;;;;;5004576;28;20560;-89
2022/10/07 01:06:38;;;;;;;13.53;5.07;;;12.60;30.70;;;;;;4996681;28;20188;-89
2022/10/07 01:09:04;;;;;;;13.10;4.70;;;12.60;34.00;;;;;;4995939;28;20210;-89
2022/10/07 01:11:45;;;;;;;9.43;4.90;;;12.60;32.00;;;;;;4997329;28;20175;-89
2022/10/07 01:14:32;;;;;;;15.77;5.50;;;12.60;31.10;;;;;;4998165;28;20202;-88
2022/10/07 01:17:19;;;;;;;11.20;4.50;;;12.80;26.40;;;;;;4997183;28;20204;-90
2022/10/07 01:19:57;;;;;;;13.37;5.40;;;12.80;26.20;;;;;;4994948;28;20203;-90
2022/10/07 01:22:39;;;;;;;13.77;4.80;;;12.70;23.20;;;;;;4996349;28;20194;-91
2022/10/07 01:25:11;;;;;;;15.60;5.60;;;12.40;30.20;;;;;;4997640;28;20208;-90
2022/10/07 01:27:41;;;;;;;16.00;5.30;;;12.20;41.10;;;;;;4996718;28;20229;-93
2022/10/07 01:30:08;;;;;;;18.67;5.17;;;12.20;47.00;;;;;;4996234;28;20584;-91
2022/10/07 01:32:58;;;;;;;20.83;6.13;;;12.10;53.20;;;;;;4996021;28;20186;-89
2022/10/07 01:35:31;;;;;;;14.00;4.80;;;12.30;50.00;;;;;;4995437;28;20181;-89
2022/10/07 01:38:07;;;;;;;18.63;5.17;;;12.40;46.10;;;;;;4995846;28;20280;-90
2022/10/07 01:40:51;;;;;;;16.50;6.07;;;12.50;40.00;;;;;;4995072;28;20178;-89
2022/10/07 01:43:19;;;;;;;11.17;5.13;;;12.60;35.00;;;;;;4995572;28;20201;-90
2022/10/07 01:45:46;;;;;;;17.47;5.60;;;12.60;30.90;;;;;;4996106;28;20171;-90
2022/10/07 01:48:12;;;;;;;15.20;5.67;;;12.60;33.80;;;;;;5002026;28;20175;-88
2022/10/07 01:50:38;;;;;;;11.90;5.20;;;12.60;34.30;;;;;;5016812;28;20194;-87
2022/10/07 01:53:33;;;;;;;14.83;4.80;;;12.70;32.00;;;;;;5015129;28;20186;-88
2022/10/07 01:56:12;;;;;;;12.90;4.70;;;12.60;29.00;;;;;;5030663;28;20166;-88
2022/10/07 01:59:00;;;;;;;9.47;4.43;;;12.40;30.30;;;;;;5015280;28;20516;-88
2022/10/07 02:01:46;;;;;;;10.07;4.80;;;12.30;38.10;;;;;;5015052;28;20210;-89
2022/10/07 02:04:24;;;;;;;19.90;5.50;;;12.10;45.60;;;;;;5002443;28;20175;-90
2022/10/07 02:07:11;;;;;;;12.63;5.00;;;12.10;50.00;;;;;;4999338;28;20177;-89
2022/10/07 02:10:08;;;;;;;16.60;5.00;;;12.10;50.30;;;;;;4999672;28;20193;-88
2022/10/07 02:12:48;;;;;;;19.10;5.30;;;11.90;50.80;;;;;;4996131;28;20175;-90
2022/10/07 02:15:24;;;;;;;14.43;5.20;;;12.40;53.00;;;;;;4995949;28;20171;-90
2022/10/07 02:18:01;;;;;;;14.70;5.30;;;12.10;50.40;;;;;;4995126;28;20222;-89
2022/10/07 02:20:31;;;;;;;13.03;4.13;;;12.40;42.10;;;;;;4993866;28;20191;-90
2022/10/07 02:23:01;;;;;;;12.70;4.50;;;12.50;35.30;;;;;;5016615;28;20195;-88
2022/10/07 02:25:31;;;;;;;13.80;4.37;;;12.40;35.70;;;;;;5014823;28;20179;-87
2022/10/07 02:27:57;;;;;;;14.23;4.63;;;12.20;41.70;;;;;;4997791;28;20631;-88
2022/10/07 02:30:24;;;;;;;14.00;4.63;;;12.00;47.90;;;;;;5002093;28;20171;-88
2022/10/07 02:32:57;;;;;;;16.20;4.60;;;11.90;50.10;;;;;;5002087;28;20673;-89
2022/10/07 02:35:51;;;;;;;16.67;4.60;;;11.80;54.80;;;;;;4996728;28;20171;-89
2022/10/07 02:38:17;;;;;;;13.27;4.57;;;11.80;57.30;;;;;;4995440;28;20215;-89
2022/10/07 02:41:06;;;;;;;15.60;4.20;;;11.90;57.20;;;;;;4993852;28;20173;-89
2022/10/07 02:43:57;;;;;;;10.87;4.00;;;11.90;55.40;;;;;;4993391;28;20175;-89
2022/10/07 02:46:31;;;;;;;15.83;4.07;;;12.10;49.40;;;;;;4993930;28;20193;-89
2022/10/07 02:49:02;;;;;;;11.70;3.87;;;12.20;43.20;;;;;;4995485;28;20182;-90
2022/10/07 02:52:00;;;;;;;16.37;4.70;;;12.10;43.40;;;;;;4994049;28;20187;-90
2022/10/07 02:54:34;;;;;;;14.73;3.87;;;12.20;37.20;;;;;;4995243;28;20174;-91
2022/10/07 02:57:00;;;;;;;15.63;4.33;;;12.00;41.80;;;;;;4997115;28;20670;-91
2022/10/07 02:59:28;;;;;;;11.20;3.90;;;11.90;46.50;;;;;;4996592;28;20182;-92
2022/10/07 03:01:57;;;;;;;14.77;4.90;;;11.80;49.90;;;;;;4995400;28;20274;-91
2022/10/07 03:04:23;;;;;;;11.53;4.03;;;12.00;46.30;;;;;;4996082;28;20171;-90
2022/10/07 03:06:50;;;;;;;13.40;4.00;;;12.10;40.00;;;;;;4995405;28;20233;-90
2022/10/07 03:09:16;;;;;;;11.03;3.80;;;12.40;36.90;;;;;;4994549;28;20178;-91
2022/10/07 03:11:42;;;;;;;12.13;3.93;;;12.20;33.20;;;;;;5002702;28;20205;-89
2022/10/07 03:14:08;;;;;;;15.23;3.80;;;12.20;35.00;;;;;;5009056;28;20198;-90
2022/10/07 03:16:34;;;;;;;9.60;3.73;;;12.10;40.30;;;;;;5020529;28;20203;-90
2022/10/07 03:19:01;;;;;;;15.87;4.50;;;11.70;47.70;;;;;;5020368;28;20186;-90
2022/10/07 03:21:27;;;;;;;11.47;4.17;;;11.60;53.40;;;;;;5005138;28;20219;-88
2022/10/07 03:23:53;;;;;;;12.67;3.70;;;11.50;56.50;;;;;;5003701;28;20278;-89
2022/10/07 03:26:20;;;;;;;10.13;3.67;;;11.50;58.90;;;;;;4999469;28;20627;-89
2022/10/07 03:28:46;;;;;;;12.63;4.77;;;11.60;61.20;;;;;;4999438;28;20183;-91
2022/10/07 03:31:15;;;;;;;8.67;3.90;;;11.50;59.70;;;;;;5002856;28;20167;-89
2022/10/07 03:33:41;;;;;;;14.87;3.90;;;11.80;53.90;;;;;;4997781;28;20693;-90
2022/10/07 03:36:07;;;;;;;12.87;3.90;;;11.90;48.70;;;;;;4997452;28;20287;-90
2022/10/07 03:38:34;;;;;;;13.07;3.70;;;11.80;46.10;;;;;;4998722;28;20213;-90
2022/10/07 03:41:02;;;;;;;12.03;3.83;;;12.00;40.70;;;;;;4998144;28;20171;-89
2022/10/07 03:43:28;;;;;;;14.53;4.40;;;11.90;37.80;;;;;;4997732;28;20193;-89
2022/10/07 03:45:55;;;;;;;10.73;3.63;;;12.00;34.10;;;;;;4998117;28;20175;-89
2022/10/07 03:48:21;;;;;;;11.70;3.37;;;11.80;39.20;;;;;;4997614;28;20171;-90
2022/10/07 03:50:52;;;;;;;10.27;3.23;;;11.70;46.40;;;;;;4997717;28;20662;-91
2022/10/07 03:53:19;;;;;;;13.47;4.23;;;11.40;51.80;;;;;;4996132;28;20175;-90
2022/10/07 03:55:45;;;;;;;9.90;3.83;;;11.40;57.90;;;;;;4996599;28;20262;-90
2022/10/07 03:58:12;;;;;;;12.63;3.90;;;11.30;59.00;;;;;;4997309;28;20305;-90
2022/10/07 04:00:39;;;;;;;13.07;3.93;;;11.30;58.40;;;;;;4997264;28;20182;-90
2022/10/07 04:03:07;;;;;;;14.90;4.93;;;11.30;59.60;;;;;;4997167;28;20518;-89
2022/10/07 04:05:34;;;;;;;11.67;4.73;;;11.50;61.30;;;;;;4996723;28;20175;-90
2022/10/07 04:07:59;;;;;;;12.17;4.30;;;11.30;58.90;;;;;;4996992;28;20181;-89
2022/10/07 04:10:26;;;;;;;10.27;3.73;;;11.30;58.30;;;;;;4996796;28;20170;-90
2022/10/07 04:12:53;;;;;;;11.70;4.03;;;11.50;58.80;;;;;;5002510;28;20247;-87
2022/10/07 04:15:19;;;;;;;19.27;4.40;;;11.30;59.70;;;;;;5004907;28;20217;-88
2022/10/07 04:17:46;;;;;;;12.83;4.37;;;11.30;59.20;;;;;;5001472;28;20675;-89
2022/10/07 04:20:15;;;;;;;11.20;4.20;;;11.30;59.60;;;;;;4997760;28;20198;-89
2022/10/07 04:22:44;;;;;;;13.67;3.90;;;11.30;59.60;;;;;;4996058;28;20195;-89
2022/10/07 04:27:56;;;;;;;9.50;3.57;;;11.50;50.70;;;;;;4997985;28;20225;-89
2022/10/07 04:30:24;;;;;;;16.60;3.90;;;11.70;51.40;;;;;;5007347;28;20202;-90
2022/10/07 04:32:50;;;;;;;15.63;4.60;;;11.30;53.30;;;;;;5000282;28;20175;-91
2022/10/07 04:35:18;;;;;;;9.20;3.60;;;11.40;55.10;;;;;;4998969;28;20318;-91
2022/10/07 04:37:43;;;;;;;10.70;4.20;;;11.30;55.60;;;;;;4999420;28;20206;-89
2022/10/07 04:40:10;;;;;;;16.63;5.30;;;11.30;56.40;;;;;;4998738;28;20230;-91
2022/10/07 04:45:24;;;;;;;12.37;4.40;;;11.20;58.10;;;;;;5007415;28;20197;-90
2022/10/07 04:47:49;;;;;;;12.93;3.97;;;11.20;58.70;;;;;;5010994;28;20167;-91
2022/10/07 04:50:15;;;;;;;9.53;3.87;;;11.30;58.50;;;;;;5018795;28;20179;-89
2022/10/07 04:52:42;;;;;;;13.57;3.93;;;11.20;57.40;;;;;;5018725;28;20190;-90
2022/10/07 04:55:10;;;;;;;15.63;4.10;;;11.20;58.00;;;;;;5016747;28;20179;-89
2022/10/07 04:57:37;;;;;;;14.97;5.00;;;11.30;58.10;;;;;;5018341;28;20199;-89
2022/10/07 05:00:04;;;;;;;18.17;9.37;;;11.40;56.00;;;;;;5002459;28;20179;-91
2022/10/07 05:02:30;;;;;;;13.70;4.33;;;11.40;53.60;;;;;;5018560;28;20168;-89
2022/10/07 05:04:56;;;;;;;13.07;3.97;;;11.40;53.20;;;;;;5014998;28;20230;-92
2022/10/07 05:07:25;;;;;;;12.60;3.67;;;11.50;52.00;;;;;;5018095;28;20262;-91
2022/10/07 05:09:54;;;;;;;15.67;5.27;;;11.40;51.40;;;;;;5014218;28;20179;-91
2022/10/07 05:12:19;;;;;;;13.23;4.20;;;11.50;48.10;;;;;;5004578;28;20174;-90
2022/10/07 05:14:50;;;;;;;16.70;4.53;;;11.70;48.90;;;;;;4983514;28;20210;-89
2022/10/07 05:17:19;;;;;;;17.40;3.80;;;11.50;49.60;;;;;;4996700;28;20206;-90
2022/10/07 05:19:47;;;;;;;9.30;3.83;;;11.50;49.60;;;;;;4996752;28;20182;-90
2022/10/07 05:22:16;;;;;;;17.13;4.37;;;11.40;52.10;;;;;;4995959;28;20194;-90
2022/10/07 05:24:46;;;;;;;17.37;4.10;;;11.40;53.80;;;;;;4998824;28;20179;-91
2022/10/07 05:27:13;;;;;;;12.73;4.37;;;11.40;55.60;;;;;;4998340;28;20206;-88
2022/10/07 05:29:39;;;;;;;10.00;3.57;;;11.30;56.50;;;;;;5010019;28;20250;-89
2022/10/07 05:32:05;;;;;;;13.40;4.23;;;11.40;57.50;;;;;;5001925;28;20170;-90
2022/10/07 05:34:36;;;;;;;14.20;3.90;;;11.30;57.90;;;;;;4999059;28;20178;-89
2022/10/07 05:37:02;;;;;;;13.77;3.87;;;11.40;57.90;;;;;;5004350;28;20253;-91
2022/10/07 05:39:28;;;;;;;18.00;4.80;;;11.40;56.50;;;;;;5013234;28;20182;-90
2022/10/07 05:41:54;;;;;;;14.37;4.47;;;11.70;48.40;;;;;;5014609;28;20183;-91
2022/10/07 05:44:21;;;;;;;8.70;4.07;;;11.70;42.30;;;;;;5013646;28;20226;-92
2022/10/07 05:46:46;;;;;;;20.40;4.37;;;11.60;41.70;;;;;;5014722;28;20217;-89
2022/10/07 05:49:15;;;;;;;13.47;4.13;;;11.40;46.70;;;;;;5000971;28;20178;-89
2022/10/07 05:51:48;;;;;;;16.13;4.37;;;11.30;51.10;;;;;;5003085;28;20187;-88
2022/10/07 05:54:35;;;;;;;15.60;4.03;;;11.30;56.10;;;;;;5014145;28;20183;-90
2022/10/07 05:57:02;;;;;;;12.17;3.87;;;11.10;59.90;;;;;;5006327;28;20574;-87
2022/10/07 05:59:27;;;;;;;9.47;3.90;;;11.40;62.90;;;;;;4996932;28;20175;-92
2022/10/07 06:01:58;;;;;;;11.50;3.87;;;11.10;63.60;;;;;;4995588;28;20182;-90
2022/10/07 06:04:25;;;;;;;18.23;4.17;;;11.30;60.60;;;;;;5001000;28;20203;-90
2022/10/07 06:06:52;;;;;;;13.67;4.30;;;11.50;55.60;;;;;;4998342;28;20175;-88
2022/10/07 06:14:48;;;;;;;18.90;4.13;;;11.80;40.70;;;;;;4998434;28;20229;-92
2022/10/07 06:17:14;;;;;;;19.30;4.13;;;11.80;40.60;;;;;;4995058;28;20738;-92
2022/10/07 06:19:40;;;;;;;15.70;3.40;;;11.60;42.50;;;;;;4999527;28;20218;-91
2022/10/07 06:22:05;;;;;;;12.13;3.77;;;11.80;40.60;;;;;;5003568;28;20329;-89
2022/10/07 06:24:32;;;;;;;17.27;4.27;;;11.70;41.90;;;;;;5001078;28;20626;-90
2022/10/07 06:26:58;;;;;;;13.43;4.10;;;11.70;41.70;;;;;;4996301;28;20171;-91
2022/10/07 06:29:30;;;;;;;13.17;4.30;;;11.80;40.50;;;;;;4995815;28;20248;-90
2022/10/07 06:31:59;;;;;;;13.43;4.20;;;11.50;44.90;;;;;;4996094;28;20178;-92
2022/10/07 06:34:24;;;;;;;18.53;4.10;;;11.70;48.70;;;;;;4992884;28;20694;-92
2022/10/07 06:36:50;;;;;;;19.57;4.43;;;11.60;49.00;;;;;;4994540;28;20266;-88
2022/10/07 06:39:16;;;;;;;17.70;4.37;;;11.70;47.50;;;;;;4995614;28;20179;-90
2022/10/07 06:41:42;;;;;;;14.90;3.80;;;11.60;48.70;;;;;;4998153;28;20183;-89
2022/10/07 06:44:08;;;;;;;13.70;4.20;;;11.60;49.30;;;;;;5001037;28;20171;-90
2022/10/07 06:46:33;;;;;;;10.83;3.50;;;11.70;48.40;;;;;;5004466;28;20171;-88
2022/10/07 06:49:01;;;;;;;12.67;3.70;;;11.70;46.90;;;;;;5006970;28;20171;-89
2022/10/07 06:51:27;;;;;;;11.03;3.53;;;11.80;46.20;;;;;;5005845;28;20178;-88
2022/10/07 06:53:56;;;;;;;16.10;4.13;;;11.80;46.10;;;;;;5008402;28;20183;-90
2022/10/07 06:56:22;;;;;;;15.70;4.00;;;11.90;47.40;;;;;;5006471;28;20171;-87
2022/10/07 06:58:48;;;;;;;15.80;4.20;;;11.90;45.90;;;;;;5004516;28;20179;-88
2022/10/07 07:01:14;;;;;;;15.50;3.90;;;12.10;43.90;;;;;;5006639;28;20175;-88
2022/10/07 07:03:41;;;;;;;13.90;3.97;;;12.00;40.20;;;;;;5008725;28;20183;-89
2022/10/07 07:06:07;;;;;;;12.97;4.63;;;12.00;38.40;;;;;;5006646;28;20174;-90
2022/10/07 07:08:37;;;;;;;18.43;5.03;;;11.90;40.40;;;;;;5004943;28;20209;-90
2022/10/07 07:13:57;;;;;;;14.90;4.50;;;12.00;39.80;;;;;;5004645;28;20174;-90
2022/10/07 07:16:23;;;;;;;11.40;3.70;;;12.10;40.70;;;;;;5001799;28;20177;-90
2022/10/07 07:18:57;;;;;;;17.47;4.57;;;12.00;44.40;;;;;;4997421;28;20178;-90
2022/10/07 07:21:24;;;;;;;15.77;4.30;;;11.90;47.90;;;;;;4996819;28;20234;-90
2022/10/07 07:23:51;;;;;;;14.33;4.00;;;12.20;47.70;;;;;;4998034;28;20183;-90
2022/10/07 07:26:19;;;;;;;13.07;3.87;;;12.30;43.00;;;;;;4998622;28;20171;-88
2022/10/07 07:29:00;;;;;;;15.27;4.83;;;12.50;37.30;;;;;;4998571;28;20175;-89
2022/10/07 07:31:28;;;;;;;11.70;4.13;;;12.60;31.50;;;;;;4997749;28;20266;-89
2022/10/07 07:33:55;;;;;;;15.30;4.60;;;12.70;29.90;;;;;;4998267;28;20175;-89
2022/10/07 07:36:24;;;;;;;14.90;4.40;;;12.60;28.20;;;;;;4997905;28;20175;-89
2022/10/07 07:38:58;;;;;;;15.67;5.20;;;12.80;24.20;;;;;;4998624;28;20209;-90
2022/10/07 07:41:33;;;;;;;18.53;5.00;;;12.80;22.90;;;;;;4998644;28;20202;-89
2022/10/07 07:44:02;;;;;;;14.37;4.97;;;13.10;22.50;;;;;;4997930;28;20179;-90
2022/10/07 07:46:35;;;;;;;19.47;5.20;;;12.90;20.80;;;;;;5011206;28;20228;-91
2022/10/07 07:49:02;;;;;;;14.33;4.77;;;13.00;22.00;;;;;;5020014;28;20247;-87
2022/10/07 07:51:28;;;;;;;24.30;5.80;;;13.10;21.10;;;;;;5017092;28;20171;-91
2022/10/07 07:53:54;;;;;;;22.03;5.77;;;13.20;17.80;;;;;;5011134;28;20193;-89
2022/10/07 07:56:23;;;;;;;21.33;5.47;;;13.30;12.60;;;;;;5005030;28;20194;-87
2022/10/07 07:58:54;;;;;;;18.73;5.20;;;13.50;7.70;;;;;;4999162;28;20634;-88
2022/10/07 08:01:23;;;;;;;24.77;5.67;;;13.70;2.00;;;;;;5005883;28;20183;-86
2022/10/07 08:03:50;;;;;;;19.07;5.47;;;13.80;1.00;;;;;;5005155;28;20253;-87
2022/10/07 08:06:19;;;;;;;15.20;5.97;;;13.70;1.00;;;;;;5008693;28;20184;-87
2022/10/07 08:08:45;;;;;;;14.87;5.67;;;13.70;1.00;;;;;;5005485;28;20176;-85
2022/10/07 08:11:17;;;;;;;18.90;5.30;;;13.70;1.00;;;;;;5015767;28;20285;-85
2022/10/07 08:13:44;;;;;;;19.70;4.93;;;14.00;1.00;;;;;;5018983;28;20173;-88
2022/10/07 08:16:15;;;;;;;23.43;5.00;;;13.90;1.00;;;;;;4995275;28;20257;-88
2022/10/07 08:18:42;;;;;;;13.27;4.87;;;14.00;1.00;;;;;;5000665;28;20229;-88
2022/10/07 08:21:09;;;;;;;13.53;4.57;;;14.00;1.00;;;;;;5000537;28;20280;-85
2022/10/07 08:23:38;;;;;;;20.57;5.00;;;13.70;1.00;;;;;;5002184;28;20278;-87
2022/10/07 08:26:07;;;;;;;19.13;4.83;;;14.00;1.00;;;;;;5004118;28;20181;-86
2022/10/07 08:28:33;;;;;;;15.90;6.03;;;14.10;1.00;;;;;;5009568;28;20616;-85
2022/10/07 08:31:07;;;;;;;14.60;4.80;;;14.20;1.00;;;;;;5007722;28;20186;-87
2022/10/07 08:33:35;;;;;;;15.67;5.33;;;14.30;1.00;;;;;;5001165;28;20269;-85
2022/10/07 08:36:03;;;;;;;15.50;5.20;;;14.30;1.00;;;;;;4997178;28;20177;-87
2022/10/07 08:38:35;;;;;;;19.83;5.07;;;14.30;1.00;;;;;;4997019;28;20216;-88
2022/10/07 08:41:41;;;;;;;10.40;4.20;;;14.40;1.00;;;;;;4998659;28;20177;-86
2022/10/07 08:44:16;;;;;;;17.97;4.97;;;14.50;1.00;;;;;;4997689;28;20170;-88
2022/10/07 08:47:05;;;;;;;18.63;5.23;;;14.70;1.00;;;;;;4993686;28;20211;-87
2022/10/07 08:49:53;;;;;;;17.93;4.80;;;14.70;1.00;;;;;;5003177;28;20183;-88
2022/10/07 08:52:40;;;;;;;13.43;4.47;;;14.70;1.00;;;;;;4995585;28;20156;-87
2022/10/07 08:55:26;;;;;;;16.57;4.80;;;14.80;1.00;;;;;;4986204;28;20183;-87
2022/10/07 08:58:21;;;;;;;15.77;4.87;;;14.80;1.00;;;;;;4983969;28;20211;-86
2022/10/07 09:01:21;;;;;;;17.37;5.47;;;14.90;1.00;;;;;;4977343;28;20210;-86
2022/10/07 09:04:32;;;;;;;21.93;5.70;;;15.00;1.00;;;;;;4975209;28;20205;-85
2022/10/07 09:07:38;;;;;;;13.57;5.83;;;15.10;1.00;;;;;;4964601;28;20185;-87
2022/10/07 09:10:28;;;;;;;18.50;5.60;;;15.10;1.00;;;;;;4947118;28;20186;-88
2022/10/07 09:13:20;;;;;;;20.73;5.40;;;15.20;1.00;;;;;;4979530;28;20182;-86
2022/10/07 09:16:07;;;;;;;17.03;4.90;;;15.30;1.00;;;;;;4981490;28;20186;-88
2022/10/07 09:18:40;;;;;;;21.33;5.67;;;15.30;1.00;;;;;;4985597;28;20598;-86
2022/10/07 09:21:16;;;;;;;17.47;5.77;;;15.40;1.00;;;;;;4988648;28;20292;-86
2022/10/07 09:23:42;;;;;;;12.63;4.63;;;15.70;1.00;;;;;;4987516;28;20203;-86
2022/10/07 09:26:11;;;;;;;13.80;4.43;;;15.80;1.00;;;;;;4988378;28;20175;-87
2022/10/07 09:28:39;;;;;;;15.00;5.00;;;16.00;1.00;;;;;;4986532;28;20172;-87
2022/10/07 09:31:06;;;;;;;13.97;4.60;;;16.00;1.00;;;;;;4991633;28;20180;-88
2022/10/07 09:33:38;;;;;;;17.57;5.23;;;16.20;1.00;;;;;;4996048;28;20227;-86
2022/10/07 09:36:18;;;;;;;21.07;4.70;;;16.40;1.00;;;;;;4997460;28;20194;-85
2022/10/07 09:38:48;;;;;;;17.60;4.97;;;16.50;1.00;;;;;;4989984;28;20270;-88
2022/10/07 09:41:30;;;;;;;16.27;5.10;;;16.60;1.00;;;;;;4988697;28;20160;-87
2022/10/07 09:44:14;;;;;;;15.87;5.07;;;16.80;1.00;;;;;;4987781;28;20226;-87
2022/10/07 09:47:23;;;;;;;14.93;4.53;;;16.70;1.00;;;;;;4990329;28;20163;-88
2022/10/07 09:49:56;;;;;;;16.00;5.07;;;16.70;1.00;;;;;;4974659;28;20208;-86
2022/10/07 09:52:22;;;;;;;17.43;4.90;;;16.70;1.00;;;;;;4978156;28;20168;-89
2022/10/07 09:54:51;;;;;;;22.97;5.50;;;16.80;1.00;;;;;;4977795;28;20179;-86
2022/10/07 09:57:34;;;;;;;13.07;3.90;;;16.80;1.00;;;;;;4978545;28;20302;-86
2022/10/07 10:00:12;;;;;;;12.40;4.50;;;16.90;1.00;;;;;;4976710;28;20543;-86
2022/10/07 10:02:51;;;;;;;10.30;4.30;;;16.90;1.00;;;;;;4978357;28;20183;-87
2022/10/07 10:05:30;;;;;;;11.80;4.37;;;17.00;1.00;;;;;;4977048;28;20194;-87
2022/10/07 10:08:02;;;;;;;13.43;4.27;;;17.10;1.00;;;;;;4975913;28;20175;-87
2022/10/07 10:10:33;;;;;;;10.40;4.00;;;17.10;1.00;;;;;;4977090;28;20178;-86
2022/10/07 10:13:01;;;;;;;13.77;4.27;;;17.20;1.00;;;;;;4976643;28;20171;-88
2022/10/07 10:15:43;;;;;;;14.63;4.10;;;17.20;1.00;;;;;;4977742;28;20633;-87
2022/10/07 10:18:26;;;;;;;15.90;4.20;;;17.20;1.00;;;;;;4976340;28;20273;-86
2022/10/07 10:21:18;;;;;;;11.73;3.00;;;17.10;1.00;;;;;;4975429;28;20761;-87
2022/10/07 10:23:47;;;;;;;12.87;2.93;;;17.10;1.00;;;;;;4975325;28;20199;-87
2022/10/07 10:26:41;;;;;;;13.83;3.00;;;17.20;1.00;;;;;;4959739;28;20193;-89
2022/10/07 10:29:15;;;;;;;12.53;4.03;;;17.20;1.00;;;;;;4975059;28;20229;-87
2022/10/07 10:32:00;;;;;;;13.10;3.00;;;17.40;1.00;;;;;;4977448;28;20261;-88
2022/10/07 10:34:41;;;;;;;9.17;3.30;;;17.50;99.90;;;;;;4976958;28;20177;-88
2022/10/07 10:37:20;;;;;;;15.20;3.90;;;17.70;99.90;;;;;;4983342;28;20287;-87
2022/10/07 10:40:06;;;;;;;10.57;3.40;;;17.70;99.90;;;;;;4984208;28;20171;-89
2022/10/07 10:43:04;;;;;;;12.33;3.07;;;17.70;99.90;;;;;;4981061;28;20252;-89
2022/10/07 10:45:37;;;;;;;11.33;3.00;;;17.70;99.90;;;;;;4975337;28;20244;-90
2022/10/07 10:48:27;;;;;;;10.80;3.10;;;17.80;99.90;;;;;;4975339;28;20170;-89
2022/10/07 10:51:33;;;;;;;11.00;3.37;;;17.70;99.90;;;;;;4975383;28;20616;-90
2022/10/07 10:54:11;;;;;;;11.03;2.57;;;17.80;99.90;;;;;;4975590;28;20186;-89
2022/10/07 10:57:00;;;;;;;14.23;2.97;;;17.90;99.90;;;;;;4975310;28;20185;-89
2022/10/07 10:59:30;;;;;;;8.00;2.20;;;18.10;99.90;;;;;;4977354;28;20531;-89
2022/10/07 11:02:22;;;;;;;12.33;3.27;;;18.20;99.90;;;;;;4975268;28;20204;-89
2022/10/07 11:04:50;;;;;;;11.77;3.60;;;18.20;99.90;;;;;;4968367;28;20186;-92
2022/10/07 11:07:22;;;;;;;9.07;2.80;;;18.20;99.90;;;;;;4976688;28;20259;-90
2022/10/07 11:09:54;;;;;;;12.13;2.93;;;18.20;99.90;;;;;;4978130;28;20182;-89
2022/10/07 11:12:30;;;;;;;12.90;3.30;;;18.20;99.90;;;;;;4977477;28;20214;-89
2022/10/07 11:15:20;;;;;;;8.83;3.00;;;18.20;99.90;;;;;;4984010;28;20180;-88
2022/10/07 11:17:49;;;;;;;13.00;3.63;;;18.20;99.90;;;;;;4983713;28;20220;-90
2022/10/07 11:20:18;;;;;;;11.97;3.20;;;18.10;99.90;;;;;;4980736;28;20234;-88
2022/10/07 11:23:02;;;;;;;13.40;3.27;;;18.10;61.60;;;;;;4989839;28;20207;-89
2022/10/07 11:25:47;;;;;;;10.90;2.90;;;18.10;72.10;;;;;;4990547;28;20174;-90
2022/10/07 11:28:20;;;;;;;6.97;2.60;;;18.20;92.50;;;;;;4993747;28;20178;-90
2022/10/07 11:30:53;;;;;;;11.70;3.30;;;18.20;41.90;;;;;;4995953;28;20166;-89
2022/10/07 11:33:31;;;;;;;13.20;3.47;;;18.30;75.70;;;;;;5000003;28;20202;-89
2022/10/07 11:36:12;;;;;;;10.23;2.87;;;18.20;55.20;;;;;;4997326;28;20235;-89
2022/10/07 11:38:40;;;;;;;12.37;4.10;;;18.30;52.90;;;;;;4982218;28;20206;-88
2022/10/07 11:41:19;;;;;;;11.57;3.20;;;18.30;31.20;;;;;;4979291;28;20175;-90
2022/10/07 11:43:55;;;;;;;10.13;3.30;;;18.30;1.00;;;;;;4978505;28;20176;-89
2022/10/07 11:46:35;;;;;;;10.67;3.40;;;18.30;38.70;;;;;;4980314;28;20168;-89
2022/10/07 11:49:03;;;;;;;13.37;4.37;;;18.40;1.00;;;;;;4979343;28;20178;-90
2022/10/07 11:51:44;;;;;;;15.83;4.47;;;18.30;1.00;;;;;;4979280;28;20611;-89
2022/10/07 11:54:14;;;;;;;10.17;3.10;;;18.30;1.00;;;;;;4977671;28;20185;-91
2022/10/07 11:56:59;;;;;;;11.63;2.80;;;18.40;1.00;;;;;;4978198;28;20187;-89
2022/10/07 11:59:56;;;;;;;8.77;2.47;;;18.60;1.00;;;;;;4978674;28;20204;-89
2022/10/07 12:02:28;;;;;;;11.63;2.50;;;18.40;1.00;;;;;;4978594;28;20199;-88
2022/10/07 12:04:56;;;;;;;13.87;3.07;;;18.70;1.00;;;;;;4979276;28;20335;-87
2022/10/07 12:07:37;;;;;;;10.87;2.83;;;18.60;1.00;;;;;;4988118;28;20179;-88
2022/10/07 12:10:05;;;;;;;14.60;3.50;;;18.70;1.00;;;;;;4986095;28;20176;-89
2022/10/07 12:12:48;;;;;;;10.60;3.20;;;18.70;99.90;;;;;;4990279;28;20243;-86
2022/10/07 12:15:40;;;;;;;8.87;3.20;;;18.70;99.90;;;;;;4998803;28;20174;-86
2022/10/07 12:18:06;;;;;;;10.37;2.70;;;18.70;99.90;;;;;;4997936;28;20397;-86
2022/10/07 12:20:51;;;;;;;15.60;2.77;;;18.80;99.90;;;;;;4997555;28;20182;-88
2022/10/07 12:23:24;;;;;;;9.03;2.63;;;18.80;16.30;;;;;;4998336;28;20197;-90
2022/10/07 12:25:57;;;;;;;7.47;2.30;;;18.80;1.00;;;;;;4999542;28;20180;-87
2022/10/07 12:28:47;;;;;;;12.40;2.53;;;18.70;1.00;;;;;;4998140;28;20164;-87
2022/10/07 12:31:31;;;;;;;11.73;2.63;;;18.60;1.00;;;;;;4991099;28;20168;-87
2022/10/07 12:34:09;;;;;;;10.50;3.00;;;18.70;1.00;;;;;;4990835;28;20183;-86
2022/10/07 12:36:43;;;;;;;8.47;2.40;;;18.70;76.30;;;;;;4986789;28;20533;-89
2022/10/07 12:39:14;;;;;;;8.53;2.50;;;18.80;96.00;;;;;;4980735;28;20175;-87
2022/10/07 12:41:45;;;;;;;8.50;2.70;;;18.90;1.00;;;;;;4978253;28;20170;-88
2022/10/07 12:44:26;;;;;;;12.00;2.90;;;18.60;1.00;;;;;;4978734;28;20181;-88
2022/10/07 12:46:57;;;;;;;8.17;2.57;;;18.70;1.00;;;;;;4978321;28;20175;-86
2022/10/07 12:49:36;;;;;;;11.50;2.77;;;18.70;99.90;;;;;;4987862;28;20193;-85
2022/10/07 12:52:14;;;;;;;6.90;2.27;;;18.80;99.90;;;;;;4985333;28;20176;-84
2022/10/07 12:54:50;;;;;;;9.87;2.70;;;18.90;1.00;;;;;;4982011;28;20587;-88
2022/10/07 12:57:20;;;;;;;6.97;3.03;;;18.90;1.00;;;;;;4978745;28;20218;-87
2022/10/07 13:00:01;;;;;;;10.30;2.80;;;19.00;99.90;;;;;;4983596;28;20176;-86
2022/10/07 13:02:52;;;;;;;12.10;2.77;;;18.90;99.90;;;;;;4984812;28;20231;-88
2022/10/07 13:05:51;;;;;;;10.53;2.53;;;19.10;60.20;;;;;;4979363;28;20181;-89
2022/10/07 13:08:39;;;;;;;17.30;3.27;;;19.10;99.90;;;;;;4978329;28;20241;-88
2022/10/07 13:11:24;;;;;;;13.13;2.50;;;19.10;1.00;;;;;;4979529;28;20168;-88
2022/10/07 13:14:12;;;;;;;16.30;3.13;;;19.40;1.00;;;;;;4978653;28;20176;-88
2022/10/07 13:16:40;;;;;;;7.60;2.83;;;19.60;22.70;;;;;;4980238;28;20186;-88
2022/10/07 13:19:32;;;;;;;11.23;2.70;;;19.40;99.90;;;;;;4979939;28;20223;-90
2022/10/07 13:21:58;;;;;;;17.23;3.17;;;19.40;1.00;;;;;;4980084;28;20200;-88
2022/10/07 13:24:27;;;;;;;12.17;3.10;;;19.30;1.00;;;;;;4978951;28;20189;-88
2022/10/07 13:26:54;;;;;;;11.93;2.97;;;19.50;99.90;;;;;;4980391;28;20180;-88